createdAt,value
2023-04-26T00:02:27.638Z,9.01
2023-04-26T00:05:01.629Z,8.99
2023-04-26T00:07:32.742Z,8.96
2023-04-26T00:10:03.430Z,8.92
2023-04-26T00:12:33.756Z,8.90
2023-04-26T00:15:05.305Z,8.89
2023-04-26T00:17:37.081Z,8.87
2023-04-26T00:20:12.493Z,8.84
2023-04-26T00:22:42.621Z,8.80
2023-04-26T00:25:14.791Z,8.75
2023-04-26T00:27:45.317Z,8.73
2023-04-26T00:30:17.299Z,8.68
2023-04-26T00:32:48.331Z,8.64
2023-04-26T00:35:19.769Z,8.62
2023-04-26T00:37:50.499Z,8.59
2023-04-26T00:40:22.068Z,8.59
2023-04-26T00:42:58.924Z,8.55
2023-04-26T00:45:30.530Z,8.53
2023-04-26T00:48:02.959Z,8.47
2023-04-26T00:50:33.594Z,8.48
2023-04-26T00:53:07.181Z,8.47
2023-04-26T00:55:38.130Z,8.45
2023-04-26T00:58:08.470Z,8.44
2023-04-26T01:00:39.173Z,8.39
2023-04-26T01:03:10.818Z,8.35
2023-04-26T01:05:42.073Z,8.33
2023-04-26T01:08:16.859Z,8.29
2023-04-26T01:10:49.089Z,8.28
2023-04-26T01:13:19.590Z,8.25
2023-04-26T01:15:51.260Z,8.23
2023-04-26T01:18:21.674Z,8.24
2023-04-26T01:20:53.636Z,8.21
2023-04-26T01:23:23.957Z,8.19
2023-04-26T01:25:56.131Z,8.18
2023-04-26T01:28:26.446Z,8.15
2023-04-26T01:30:56.312Z,8.15
2023-04-26T01:33:27.085Z,8.11
2023-04-26T01:35:57.621Z,8.10
2023-04-26T01:38:27.938Z,8.06
2023-04-26T01:40:58.260Z,8.01
2023-04-26T01:43:28.373Z,8.01
2023-04-26T01:45:59.188Z,7.98
2023-04-26T01:48:32.912Z,7.98
2023-04-26T01:51:04.651Z,7.98
2023-04-26T01:53:36.632Z,7.96
2023-04-26T01:56:09.406Z,7.96
2023-04-26T01:58:41.167Z,7.93
2023-04-26T02:01:11.718Z,7.93
2023-04-26T02:03:41.866Z,7.92
2023-04-26T02:06:12.567Z,7.89
2023-04-26T02:08:42.462Z,7.87
2023-04-26T02:11:12.072Z,7.85
2023-04-26T02:13:42.488Z,7.83
2023-04-26T02:16:12.694Z,7.82
2023-04-26T02:18:43.857Z,7.81
2023-04-26T02:21:16.574Z,7.77
2023-04-26T02:23:47.268Z,7.76
2023-04-26T02:26:17.605Z,7.72
2023-04-26T02:28:48.315Z,7.70
2023-04-26T02:31:19.624Z,7.68
2023-04-26T02:33:51.420Z,7.66
2023-04-26T02:36:22.154Z,7.64
2023-04-26T02:38:53.464Z,7.63
2023-04-26T02:41:24.641Z,7.60
2023-04-26T02:43:55.169Z,7.57
2023-04-26T02:46:25.410Z,7.55
2023-04-26T02:48:55.832Z,7.52
2023-04-26T02:51:27.182Z,7.49
2023-04-26T02:53:57.285Z,7.47
2023-04-26T02:56:29.039Z,7.46
2023-04-26T02:58:59.764Z,7.44
2023-04-26T03:01:30.564Z,7.41
2023-04-26T03:04:01.087Z,7.38
2023-04-26T03:06:32.988Z,7.33
2023-04-26T03:09:05.175Z,7.31
2023-04-26T03:11:34.669Z,7.26
2023-04-26T03:14:05.614Z,7.23
2023-04-26T03:16:43.216Z,7.18
2023-04-26T03:19:14.232Z,7.18
2023-04-26T03:21:45.366Z,7.17
2023-04-26T03:24:15.902Z,7.15
2023-04-26T03:26:46.017Z,7.14
2023-04-26T03:29:17.977Z,7.11
2023-04-26T03:31:48.334Z,7.10
2023-04-26T03:34:18.830Z,7.09
2023-04-26T03:36:49.561Z,7.05
2023-04-26T03:39:20.497Z,7.04
2023-04-26T03:41:51.024Z,7.02
2023-04-26T03:44:21.152Z,7.02
2023-04-26T03:46:51.674Z,7.00
2023-04-26T03:49:22.413Z,7.02
2023-04-26T03:51:53.347Z,7.01
2023-04-26T03:54:24.071Z,7.01
2023-04-26T03:56:55.417Z,7.00
2023-04-26T03:59:26.149Z,7.01
2023-04-26T04:01:57.134Z,7.02
2023-04-26T04:04:28.096Z,7.02
2023-04-26T04:06:59.586Z,7.03
2023-04-26T04:09:29.899Z,7.05
2023-04-26T04:12:00.832Z,7.04
2023-04-26T04:14:31.564Z,7.07
2023-04-26T04:17:02.296Z,7.09
2023-04-26T04:19:34.465Z,7.12
2023-04-26T04:22:05.197Z,7.14
2023-04-26T04:24:35.931Z,7.17
2023-04-26T04:27:07.279Z,7.22
2023-04-26T04:29:38.007Z,7.26
2023-04-26T04:32:09.760Z,7.30
2023-04-26T04:34:41.318Z,7.37
2023-04-26T04:37:12.471Z,7.43
2023-04-26T04:39:43.398Z,7.47
2023-04-26T04:42:13.933Z,7.54
2023-04-26T04:44:45.477Z,7.61
2023-04-26T04:47:17.199Z,7.68
2023-04-26T04:49:47.756Z,7.76
2023-04-26T04:52:19.511Z,7.84
2023-04-26T04:54:50.050Z,7.95
2023-04-26T04:57:20.981Z,8.03
2023-04-26T04:59:51.708Z,8.14
2023-04-26T05:02:22.392Z,8.19
2023-04-26T05:04:53.060Z,8.29
2023-04-26T05:07:24.606Z,8.39
2023-04-26T05:09:56.895Z,8.48
2023-04-26T05:12:27.646Z,8.54
2023-04-26T05:14:57.558Z,8.60
2023-04-26T05:17:30.458Z,8.64
2023-04-26T05:20:03.856Z,8.71
2023-04-26T05:22:36.207Z,8.75
2023-04-26T05:25:13.123Z,8.81
2023-04-26T05:27:45.289Z,8.88
2023-04-26T05:30:24.067Z,8.94
2023-04-26T05:33:23.049Z,9.07
2023-04-26T05:35:59.930Z,9.17
2023-04-26T05:38:30.654Z,9.28
2023-04-26T05:41:01.185Z,9.36
2023-04-26T05:43:32.738Z,9.42
2023-04-26T05:46:02.927Z,9.53
2023-04-26T05:48:33.586Z,9.65
2023-04-26T05:51:04.755Z,9.77
2023-04-26T05:53:34.847Z,9.89
2023-04-26T05:56:07.225Z,10.05
2023-04-26T05:58:38.970Z,10.18
2023-04-26T06:01:09.699Z,10.30
2023-04-26T06:03:41.626Z,10.42
2023-04-26T06:06:13.009Z,10.54
2023-04-26T06:08:45.384Z,10.67
2023-04-26T06:11:16.746Z,10.76
2023-04-26T06:13:46.853Z,10.88
2023-04-26T06:16:17.286Z,10.99
2023-04-26T06:18:47.896Z,11.12
2023-04-26T06:21:18.636Z,11.23
2023-04-26T06:23:50.598Z,11.33
2023-04-26T06:26:22.761Z,11.45
2023-04-26T06:28:54.311Z,11.56
2023-04-26T06:31:24.302Z,11.66
2023-04-26T06:33:55.697Z,11.76
2023-04-26T06:36:27.655Z,11.89
2023-04-26T06:38:58.469Z,11.99
2023-04-26T06:41:28.795Z,12.10
2023-04-26T06:43:59.732Z,12.21
2023-04-26T06:46:34.191Z,12.32
2023-04-26T06:49:04.677Z,12.46
2023-04-26T06:51:35.217Z,12.57
2023-04-26T06:54:05.945Z,12.69
2023-04-26T06:56:36.675Z,12.78
2023-04-26T06:59:08.220Z,12.85
2023-04-26T07:01:39.219Z,12.94
2023-04-26T07:04:10.871Z,13.01
2023-04-26T07:06:41.033Z,13.07
2023-04-26T07:09:11.976Z,13.14
2023-04-26T07:11:42.457Z,13.26
2023-04-26T07:14:13.067Z,13.31
2023-04-26T07:16:42.993Z,13.39
2023-04-26T07:19:13.265Z,13.48
2023-04-26T07:21:42.916Z,13.58
2023-04-26T07:24:13.836Z,13.67
2023-04-26T07:26:43.833Z,13.78
2023-04-26T07:29:13.747Z,13.86
2023-04-26T07:31:44.059Z,13.97
2023-04-26T07:34:14.794Z,14.09
2023-04-26T07:36:45.935Z,14.21
2023-04-26T07:39:16.677Z,14.35
2023-04-26T07:41:47.617Z,14.49
2023-04-26T07:44:17.733Z,14.61
2023-04-26T07:46:48.050Z,14.77
2023-04-26T07:49:18.168Z,14.91
2023-04-26T07:51:50.736Z,15.04
2023-04-26T07:54:21.278Z,15.18
2023-04-26T07:56:51.596Z,15.35
2023-04-26T07:59:22.117Z,15.48
2023-04-26T08:01:52.109Z,15.64
2023-04-26T08:04:33.356Z,15.81
2023-04-26T08:07:03.739Z,16.01
2023-04-26T08:09:34.675Z,16.15
2023-04-26T08:12:08.234Z,16.23
2023-04-26T08:14:38.812Z,16.33
2023-04-26T08:17:09.597Z,16.50
2023-04-26T08:19:40.884Z,16.71
2023-04-26T08:22:11.212Z,16.86
2023-04-26T08:24:41.729Z,17.02
2023-04-26T08:27:12.463Z,17.14
2023-04-26T08:29:43.210Z,17.25
2023-04-26T08:32:13.721Z,17.37
2023-04-26T08:34:44.456Z,17.48
2023-04-26T08:37:15.612Z,17.57
2023-04-26T08:39:47.350Z,17.71
2023-04-26T08:42:18.672Z,17.83
2023-04-26T08:44:49.033Z,17.93
2023-04-26T08:47:31.116Z,18.03
2023-04-26T08:50:03.559Z,18.14
2023-04-26T08:52:35.551Z,18.25
2023-04-26T08:55:10.193Z,18.31
2023-04-26T08:57:41.127Z,18.32
2023-04-26T09:00:16.452Z,18.37
2023-04-26T09:02:50.670Z,18.40
2023-04-26T09:05:23.669Z,18.41
2023-04-26T09:08:00.285Z,18.40
2023-04-26T09:10:31.794Z,18.40
2023-04-26T09:13:01.900Z,18.44
2023-04-26T09:15:32.052Z,18.52
2023-04-26T09:18:20.796Z,18.62
2023-04-26T09:21:09.209Z,18.75
2023-04-26T09:23:59.112Z,18.86
2023-04-26T09:26:29.852Z,19.00
2023-04-26T09:29:15.108Z,19.13
2023-04-26T09:31:49.492Z,19.24
2023-04-26T09:34:20.674Z,19.38
2023-04-26T09:36:56.533Z,19.47
2023-04-26T09:39:35.386Z,19.54
2023-04-26T09:42:08.255Z,19.61
2023-04-26T09:44:39.158Z,19.72
2023-04-26T09:47:11.918Z,19.85
2023-04-26T09:49:50.199Z,19.99
2023-04-26T09:52:20.800Z,20.07
2023-04-26T09:54:52.333Z,20.18
2023-04-26T09:57:23.813Z,20.32
2023-04-26T09:59:56.054Z,20.45
2023-04-26T10:02:29.335Z,20.57
2023-04-26T10:05:01.677Z,20.66
2023-04-26T10:07:32.786Z,20.66
2023-04-26T10:10:04.195Z,20.80
2023-04-26T10:12:35.997Z,20.95
2023-04-26T10:15:10.985Z,21.15
2023-04-26T10:17:41.692Z,21.31
2023-04-26T10:20:13.992Z,21.44
2023-04-26T10:22:50.459Z,21.50
2023-04-26T10:25:34.916Z,21.55
2023-04-26T10:28:05.454Z,21.62
2023-04-26T10:30:56.674Z,21.69
2023-04-26T10:33:27.600Z,21.79
2023-04-26T10:36:10.193Z,21.85
2023-04-26T10:38:42.813Z,21.89
2023-04-26T10:41:33.956Z,21.95
2023-04-26T10:44:39.156Z,22.06
2023-04-26T10:47:21.571Z,22.10
2023-04-26T10:49:51.863Z,22.19
2023-04-26T10:52:22.806Z,22.24
2023-04-26T10:54:55.253Z,22.27
2023-04-26T10:57:46.817Z,22.33
2023-04-26T11:00:27.464Z,22.42
2023-04-26T11:03:03.083Z,22.53
2023-04-26T11:05:50.953Z,22.64
2023-04-26T11:08:25.565Z,22.71
2023-04-26T11:11:10.644Z,22.78
2023-04-26T11:13:42.457Z,22.85
2023-04-26T11:16:14.044Z,22.91
2023-04-26T11:18:46.301Z,22.99
2023-04-26T11:21:19.262Z,23.09
2023-04-26T11:23:56.107Z,23.06
2023-04-26T11:26:34.083Z,23.05
2023-04-26T11:29:08.100Z,23.10
2023-04-26T11:31:37.972Z,23.13
2023-04-26T11:34:08.532Z,23.17
2023-04-26T11:36:39.471Z,23.23
2023-04-26T11:39:11.582Z,23.28
2023-04-26T11:41:44.015Z,23.35
2023-04-26T11:44:18.012Z,23.42
2023-04-26T11:46:49.655Z,23.46
2023-04-26T11:49:20.515Z,23.51
2023-04-26T11:51:51.448Z,23.56
2023-04-26T11:54:32.625Z,23.63
2023-04-26T11:57:15.401Z,23.75
2023-04-26T11:59:47.007Z,23.85
2023-04-26T12:02:18.593Z,23.92
2023-04-26T12:04:59.220Z,23.97
2023-04-26T12:07:35.576Z,24.02
2023-04-26T12:10:21.865Z,24.03
2023-04-26T12:12:54.050Z,24.01
2023-04-26T12:15:32.135Z,23.91
2023-04-26T12:18:08.414Z,23.81
2023-04-26T12:20:40.399Z,23.71
2023-04-26T12:23:13.974Z,23.61
2023-04-26T12:25:55.353Z,23.48
2023-04-26T12:28:25.678Z,22.96
2023-04-26T12:30:56.418Z,22.51
2023-04-26T12:33:26.953Z,22.23
2023-04-26T12:35:59.861Z,21.82
2023-04-26T12:38:31.884Z,21.33
2023-04-26T12:41:03.434Z,20.78
2023-04-26T12:43:35.193Z,20.15
2023-04-26T12:46:05.617Z,19.58
2023-04-26T12:48:36.448Z,19.14
2023-04-26T12:51:09.027Z,18.75
2023-04-26T12:53:39.549Z,18.28
2023-04-26T12:56:10.294Z,17.79
2023-04-26T12:58:41.021Z,17.37
2023-04-26T13:01:13.611Z,17.11
2023-04-26T13:03:45.074Z,16.94
2023-04-26T13:06:18.546Z,16.76
2023-04-26T13:08:48.669Z,16.56
2023-04-26T13:11:18.785Z,16.42
2023-04-26T13:13:49.921Z,16.30
2023-04-26T13:16:20.300Z,16.17
2023-04-26T13:18:50.970Z,16.02
2023-04-26T13:21:21.499Z,15.86
2023-04-26T13:23:51.410Z,15.75
2023-04-26T13:26:21.513Z,15.65
2023-04-26T13:28:52.057Z,15.52
2023-04-26T13:31:22.022Z,15.38
2023-04-26T13:33:52.707Z,15.25
2023-04-26T13:36:22.820Z,15.20
2023-04-26T13:38:53.554Z,15.12
2023-04-26T13:41:25.104Z,15.05
2023-04-26T13:43:55.650Z,14.97
2023-04-26T13:46:26.400Z,14.92
2023-04-26T13:48:57.305Z,14.86
2023-04-26T13:51:30.222Z,14.80
2023-04-26T13:54:00.195Z,14.76
2023-04-26T13:56:30.324Z,14.70
2023-04-26T13:59:03.025Z,14.68
2023-04-26T14:01:35.752Z,14.64
2023-04-26T14:04:10.023Z,14.61
2023-04-26T14:06:40.415Z,14.59
2023-04-26T14:09:11.660Z,14.60
2023-04-26T14:11:41.877Z,14.60
2023-04-26T14:14:12.610Z,14.55
2023-04-26T14:16:42.640Z,14.50
2023-04-26T14:19:15.061Z,14.50
2023-04-26T14:21:45.834Z,14.50
2023-04-26T14:24:16.562Z,14.48
2023-04-26T14:26:47.512Z,14.49
2023-04-26T14:29:17.824Z,14.47
2023-04-26T14:31:47.471Z,14.47
2023-04-26T14:34:18.065Z,14.46
2023-04-26T14:36:48.588Z,14.47
2023-04-26T14:39:19.320Z,14.45
2023-04-26T14:41:50.261Z,14.45
2023-04-26T14:44:22.812Z,14.43
2023-04-26T14:46:52.570Z,14.41
2023-04-26T14:49:23.073Z,14.39
2023-04-26T14:51:53.848Z,14.41
2023-04-26T14:54:24.745Z,14.38
2023-04-26T14:56:54.865Z,14.41
2023-04-26T14:59:25.391Z,14.42
2023-04-26T15:01:56.272Z,14.43
2023-04-26T15:04:27.217Z,14.46
2023-04-26T15:06:58.406Z,14.46
2023-04-26T15:09:30.817Z,14.49
2023-04-26T15:12:02.132Z,14.51
2023-04-26T15:14:32.447Z,14.54
2023-04-26T15:17:02.850Z,14.54
2023-04-26T15:19:34.117Z,14.55
2023-04-26T15:22:05.463Z,14.56
2023-04-26T15:24:38.239Z,14.58
2023-04-26T15:27:08.569Z,14.59
2023-04-26T15:29:39.098Z,14.59
2023-04-26T15:32:09.420Z,14.60
2023-04-26T15:34:43.256Z,14.61
2023-04-26T15:37:15.389Z,14.61
2023-04-26T15:39:47.349Z,14.61
2023-04-26T15:42:17.872Z,14.60
2023-04-26T15:44:48.607Z,14.61
2023-04-26T15:47:18.914Z,14.60
2023-04-26T15:49:50.909Z,14.58
2023-04-26T15:52:21.622Z,14.51
2023-04-26T15:54:52.158Z,14.49
2023-04-26T15:57:23.087Z,14.46
2023-04-26T15:59:53.625Z,14.40
2023-04-26T16:02:23.386Z,14.35
2023-04-26T16:04:54.736Z,14.30
2023-04-26T16:07:25.201Z,14.28
2023-04-26T16:09:56.144Z,14.28
2023-04-26T16:12:27.086Z,14.25
2023-04-26T16:14:57.811Z,14.24
2023-04-26T16:17:27.948Z,14.22
2023-04-26T16:19:58.045Z,14.18
2023-04-26T16:22:29.601Z,14.13
2023-04-26T16:25:01.572Z,14.07
2023-04-26T16:27:31.882Z,14.00
2023-04-26T16:30:03.434Z,13.94
2023-04-26T16:32:33.799Z,13.88
2023-04-26T16:35:04.695Z,13.79
2023-04-26T16:37:35.425Z,13.75
2023-04-26T16:40:10.734Z,13.67
2023-04-26T16:42:42.826Z,13.62
2023-04-26T16:45:16.056Z,13.57
2023-04-26T16:47:47.180Z,13.52
2023-04-26T16:50:18.102Z,13.51
2023-04-26T16:52:48.093Z,13.47
2023-04-26T16:55:19.116Z,13.41
2023-04-26T16:57:49.058Z,13.38
2023-04-26T17:00:21.013Z,13.38
2023-04-26T17:02:51.275Z,13.33
2023-04-26T17:05:22.454Z,13.26
2023-04-26T17:07:52.825Z,13.16
2023-04-26T17:10:25.973Z,13.09
2023-04-26T17:12:55.633Z,13.02
2023-04-26T17:15:26.858Z,12.99
2023-04-26T17:17:57.626Z,12.97
2023-04-26T17:20:28.540Z,12.95
2023-04-26T17:22:59.670Z,12.93
2023-04-26T17:25:31.039Z,12.91
2023-04-26T17:28:01.338Z,12.87
2023-04-26T17:30:32.281Z,12.84
2023-04-26T17:33:02.910Z,12.80
2023-04-26T17:35:33.737Z,12.76
2023-04-26T17:38:04.507Z,12.74
2023-04-26T17:40:34.791Z,12.70
2023-04-26T17:43:04.708Z,12.62
2023-04-26T17:45:34.632Z,12.61
2023-04-26T17:48:10.555Z,12.59
2023-04-26T17:50:41.208Z,12.55
2023-04-26T17:53:12.561Z,12.55
2023-04-26T17:55:43.489Z,12.54
2023-04-26T17:58:14.019Z,12.52
2023-04-26T18:00:44.953Z,12.49
2023-04-26T18:03:15.664Z,12.44
2023-04-26T18:05:46.252Z,12.45
2023-04-26T18:08:17.152Z,12.42
2023-04-26T18:10:50.134Z,12.42
2023-04-26T18:13:21.124Z,12.40
2023-04-26T18:15:55.322Z,12.40
2023-04-26T18:18:27.801Z,12.39
2023-04-26T18:20:58.186Z,12.37
2023-04-26T18:23:28.920Z,12.33
2023-04-26T18:25:59.648Z,12.32
2023-04-26T18:28:30.801Z,12.30
2023-04-26T18:31:03.021Z,12.27
2023-04-26T18:33:33.698Z,12.25
2023-04-26T18:36:05.246Z,12.23
2023-04-26T18:38:35.978Z,12.21
2023-04-26T18:41:06.502Z,12.21
2023-04-26T18:43:36.623Z,12.16
2023-04-26T18:46:08.463Z,12.16
2023-04-26T18:48:41.159Z,12.13
2023-04-26T18:51:11.277Z,12.11
2023-04-26T18:53:42.006Z,12.10
2023-04-26T18:56:12.735Z,12.07
2023-04-26T18:58:43.305Z,12.01
2023-04-26T19:01:20.401Z,11.99
2023-04-26T19:03:51.837Z,11.96
2023-04-26T19:06:22.252Z,11.92
2023-04-26T19:08:53.376Z,11.87
2023-04-26T19:11:26.975Z,11.85
2023-04-26T19:13:57.086Z,11.83
2023-04-26T19:16:28.567Z,11.81
2023-04-26T19:19:02.676Z,11.79
2023-04-26T19:21:33.583Z,11.79
2023-04-26T19:24:04.934Z,11.77
2023-04-26T19:26:36.711Z,11.75
2023-04-26T19:29:07.258Z,11.74
2023-04-26T19:31:37.365Z,11.74
2023-04-26T19:34:08.063Z,11.72
2023-04-26T19:36:42.085Z,11.71
2023-04-26T19:39:13.218Z,11.69
2023-04-26T19:41:43.931Z,11.68
2023-04-26T19:44:14.077Z,11.67
2023-04-26T19:46:46.272Z,11.66
2023-04-26T19:49:16.355Z,11.66
2023-04-26T19:51:46.491Z,11.65
2023-04-26T19:54:18.234Z,11.65
2023-04-26T19:56:48.553Z,11.63
2023-04-26T19:59:19.289Z,11.59
2023-04-26T20:01:52.282Z,11.59
2023-04-26T20:04:24.207Z,11.59
2023-04-26T20:06:54.966Z,11.58
2023-04-26T20:09:25.492Z,11.56
2023-04-26T20:11:56.233Z,11.55
2023-04-26T20:14:29.651Z,11.53
2023-04-26T20:17:01.665Z,11.52
2023-04-26T20:19:30.874Z,11.51
2023-04-26T20:22:00.994Z,11.48
2023-04-26T20:24:32.757Z,11.48
2023-04-26T20:27:03.077Z,11.45
2023-04-26T20:29:34.011Z,11.43
2023-04-26T20:32:05.438Z,11.43
2023-04-26T20:34:36.086Z,11.39
2023-04-26T20:37:07.233Z,11.37
2023-04-26T20:39:37.757Z,11.34
2023-04-26T20:42:09.308Z,11.29
2023-04-26T20:44:39.849Z,11.22
2023-04-26T20:47:09.912Z,11.18
2023-04-26T20:49:40.691Z,11.12
2023-04-26T20:52:12.447Z,11.09
2023-04-26T20:54:43.752Z,11.04
2023-04-26T20:57:14.529Z,10.99
2023-04-26T20:59:45.877Z,10.96
2023-04-26T21:02:16.148Z,10.94
2023-04-26T21:04:47.134Z,10.90
2023-04-26T21:07:17.457Z,10.89
2023-04-26T21:09:48.803Z,10.86
2023-04-26T21:12:18.727Z,10.82
2023-04-26T21:14:49.859Z,10.80
2023-04-26T21:17:19.734Z,10.75
2023-04-26T21:19:50.505Z,10.74
2023-04-26T21:22:21.041Z,10.70
2023-04-26T21:24:52.990Z,10.68
2023-04-26T21:27:23.320Z,10.64
2023-04-26T21:29:53.841Z,10.60
2023-04-26T21:32:23.640Z,10.56
2023-04-26T21:34:53.677Z,10.54
2023-04-26T21:37:24.001Z,10.49
2023-04-26T21:39:54.520Z,10.47
2023-04-26T21:42:25.252Z,10.44
2023-04-26T21:44:55.786Z,10.38
2023-04-26T21:47:25.948Z,10.34
2023-04-26T21:49:56.634Z,10.30
2023-04-26T21:52:27.159Z,10.26
2023-04-26T21:54:58.093Z,10.22
2023-04-26T21:57:28.838Z,10.18
2023-04-26T21:59:59.558Z,10.15
2023-04-26T22:02:29.583Z,10.10
2023-04-26T22:05:00.209Z,10.05
2023-04-26T22:07:30.958Z,9.98
2023-04-26T22:10:03.105Z,9.92
2023-04-26T22:12:33.840Z,9.87
2023-04-26T22:15:06.422Z,9.84
2023-04-26T22:17:34.826Z,9.80
2023-04-26T22:20:08.042Z,9.77
2023-04-26T22:22:38.400Z,9.75
2023-04-26T22:25:11.114Z,9.73
2023-04-26T22:27:41.924Z,9.69
2023-04-26T22:30:24.750Z,9.67
2023-04-26T22:32:58.887Z,9.65
2023-04-26T22:35:29.680Z,9.62
2023-04-26T22:38:00.222Z,9.59
2023-04-26T22:40:31.756Z,9.58
2023-04-26T22:43:02.292Z,9.57
2023-04-26T22:45:33.197Z,9.56
2023-04-26T22:48:03.386Z,9.53
2023-04-26T22:50:34.734Z,9.47
2023-04-26T22:53:05.648Z,9.43
2023-04-26T22:55:35.949Z,9.40
2023-04-26T22:58:06.069Z,9.35
2023-04-26T23:00:36.591Z,9.33
2023-04-26T23:03:06.470Z,9.29
2023-04-26T23:05:38.056Z,9.28
2023-04-26T23:08:08.995Z,9.25
2023-04-26T23:10:40.728Z,9.22
2023-04-26T23:13:11.279Z,9.18
2023-04-26T23:15:42.218Z,9.14
2023-04-26T23:18:13.364Z,9.13
2023-04-26T23:20:43.268Z,9.08
2023-04-26T23:23:14.216Z,9.06
2023-04-26T23:25:44.736Z,9.04
2023-04-26T23:28:14.654Z,9.02
2023-04-26T23:30:44.559Z,9.00
2023-04-26T23:33:14.492Z,8.96
2023-04-26T23:35:44.594Z,8.95
2023-04-26T23:38:15.947Z,8.94
2023-04-26T23:40:46.687Z,8.92
2023-04-26T23:43:17.405Z,8.91
2023-04-26T23:45:48.089Z,8.90
2023-04-26T23:48:19.282Z,8.88
2023-04-26T23:50:49.805Z,8.87
2023-04-26T23:53:20.545Z,8.87
2023-04-26T23:55:51.067Z,8.86
2023-04-26T23:58:21.594Z,8.86
